createdAt,value
2023-03-10T00:01:44.526Z,93969.00
2023-03-10T00:07:12.663Z,93974.00
2023-03-10T00:12:41.166Z,93958.00
2023-03-10T00:18:09.293Z,93943.00
2023-03-10T00:23:37.602Z,93938.00
2023-03-10T00:29:05.780Z,93930.00
2023-03-10T00:34:33.994Z,93922.00
2023-03-10T00:40:01.729Z,93903.00
2023-03-10T00:45:29.938Z,93910.00
2023-03-10T00:50:57.959Z,93895.00
2023-03-10T00:56:27.197Z,93882.00
2023-03-10T01:01:55.515Z,93881.00
2023-03-10T01:07:23.588Z,93870.00
2023-03-10T01:12:51.752Z,93848.00
2023-03-10T01:18:21.155Z,93840.00
2023-03-10T01:23:49.534Z,93829.00
2023-03-10T01:29:18.969Z,93812.00
2023-03-10T01:34:47.108Z,93806.00
2023-03-10T01:40:18.788Z,93793.00
2023-03-10T01:45:46.577Z,93774.00
2023-03-10T01:51:16.945Z,93756.00
2023-03-10T01:56:46.733Z,93750.00
2023-03-10T02:02:15.209Z,93748.00
2023-03-10T02:07:44.151Z,93742.00
2023-03-10T02:13:11.989Z,93727.00
2023-03-10T02:18:43.748Z,93716.00
2023-03-10T02:24:46.996Z,93704.00
2023-03-10T02:30:17.058Z,93700.00
2023-03-10T02:35:47.096Z,93700.00
2023-03-10T02:41:34.208Z,93686.00
2023-03-10T02:47:02.988Z,93677.00
2023-03-10T02:52:45.214Z,93665.00
2023-03-10T02:58:14.097Z,93658.00
2023-03-10T03:03:42.063Z,93649.00
2023-03-10T03:09:11.354Z,93644.00
2023-03-10T03:14:39.521Z,93652.00
2023-03-10T03:20:14.462Z,93640.00
2023-03-10T03:25:44.826Z,93635.00
2023-03-10T03:31:19.295Z,93622.00
2023-03-10T03:36:47.953Z,93622.00
2023-03-10T03:42:21.006Z,93637.00
2023-03-10T03:47:53.855Z,93640.00
2023-03-10T03:53:21.747Z,93640.00
2023-03-10T03:58:50.721Z,93658.00
2023-03-10T04:04:19.177Z,93668.00
2023-03-10T04:09:48.362Z,93675.00
2023-03-10T04:15:16.606Z,93735.00
2023-03-10T04:20:44.603Z,93742.00
2023-03-10T04:26:13.515Z,93734.00
2023-03-10T04:31:48.328Z,93729.00
2023-03-10T04:37:21.126Z,93735.00
2023-03-10T04:42:49.415Z,93727.00
2023-03-10T04:48:17.538Z,93726.00
2023-03-10T04:53:45.788Z,93739.00
2023-03-10T04:59:14.471Z,93735.00
2023-03-10T05:04:43.030Z,93732.00
2023-03-10T05:10:12.541Z,93734.00
2023-03-10T05:15:41.681Z,93736.00
2023-03-10T05:21:10.647Z,93748.00
2023-03-10T05:26:39.410Z,93740.00
2023-03-10T05:32:07.906Z,93744.00
2023-03-10T05:37:42.210Z,93755.00
2023-03-10T05:43:11.557Z,93739.00
2023-03-10T05:48:39.913Z,93751.00
2023-03-10T05:54:09.586Z,93747.00
2023-03-10T05:59:38.074Z,93742.00
2023-03-10T06:05:11.369Z,93728.00
2023-03-10T06:10:40.075Z,93718.00
2023-03-10T06:16:08.537Z,93722.00
2023-03-10T06:21:36.792Z,93726.00
2023-03-10T06:27:05.260Z,93719.00
2023-03-10T06:32:35.407Z,93719.00
2023-03-10T06:38:03.596Z,93693.00
2023-03-10T06:43:33.667Z,93682.00
2023-03-10T06:49:01.828Z,93654.00
2023-03-10T06:54:29.970Z,93654.00
2023-03-10T06:59:58.095Z,93689.00
2023-03-10T07:05:27.461Z,93653.00
2023-03-10T07:10:56.025Z,93616.00
2023-03-10T07:16:24.538Z,93611.00
2023-03-10T07:21:52.732Z,93621.00
2023-03-10T07:27:20.977Z,93620.00
2023-03-10T07:32:53.321Z,93631.00
2023-03-10T07:38:21.564Z,93646.00
2023-03-10T07:43:53.692Z,93640.00
2023-03-10T07:49:22.408Z,93642.00
2023-03-10T07:54:50.308Z,93632.00
2023-03-10T08:00:19.010Z,93630.00
2023-03-10T08:05:47.571Z,93625.00
2023-03-10T08:11:16.047Z,93616.00
2023-03-10T08:16:44.322Z,93623.00
2023-03-10T08:22:12.518Z,93612.00
2023-03-10T08:27:41.654Z,93597.00
2023-03-10T08:33:10.231Z,93595.00
2023-03-10T08:38:38.786Z,93579.00
2023-03-10T08:44:07.680Z,93577.00
2023-03-10T08:49:35.811Z,93577.00
2023-03-10T08:55:05.317Z,93560.00
2023-03-10T09:00:33.809Z,93587.00
2023-03-10T09:06:05.452Z,93582.00
2023-03-10T09:11:38.942Z,93580.00
2023-03-10T09:17:07.644Z,93580.00
2023-03-10T09:22:35.715Z,93583.00
2023-03-10T09:28:03.580Z,93593.00
2023-03-10T09:33:32.544Z,93572.00
2023-03-10T09:39:01.157Z,93613.00
2023-03-10T09:44:46.430Z,93600.00
2023-03-10T09:50:26.114Z,93607.00
2023-03-10T09:55:54.556Z,93585.00
2023-03-10T10:01:28.374Z,93601.00
2023-03-10T10:06:57.456Z,93618.00
2023-03-10T10:12:27.125Z,93636.00
2023-03-10T10:18:43.636Z,93642.00
2023-03-10T10:24:12.042Z,93645.00
2023-03-10T10:29:42.418Z,93690.00
2023-03-10T10:35:15.929Z,93704.00
2023-03-10T10:40:59.920Z,93721.00
2023-03-10T10:46:30.299Z,93768.00
2023-03-10T10:52:19.621Z,93752.00
2023-03-10T10:57:56.834Z,93719.00
2023-03-10T11:03:38.192Z,93690.00
2023-03-10T11:09:22.199Z,93685.00
2023-03-10T11:15:07.951Z,93660.00
2023-03-10T11:20:49.056Z,93647.00
2023-03-10T11:26:59.062Z,93655.00
2023-03-10T11:33:04.474Z,93639.00
2023-03-10T11:38:42.507Z,93632.00
2023-03-10T11:44:39.343Z,93624.00
2023-03-10T11:50:21.560Z,93610.00
2023-03-10T11:55:50.619Z,93617.00
2023-03-10T12:01:40.533Z,93604.00
2023-03-10T12:07:22.785Z,93574.00
2023-03-10T12:12:53.783Z,93583.00
2023-03-10T12:18:21.633Z,93583.00
2023-03-10T12:24:47.676Z,93564.00
2023-03-10T12:30:51.911Z,93564.00
2023-03-10T12:36:37.856Z,93577.00
2023-03-10T12:42:32.542Z,93569.00
2023-03-10T12:48:10.585Z,93548.00
2023-03-10T12:53:51.201Z,93592.00
2023-03-10T13:00:07.174Z,93549.00
2023-03-10T13:05:42.419Z,93564.00
2023-03-10T13:11:37.165Z,93562.00
2023-03-10T13:17:06.229Z,93580.00
2023-03-10T13:22:34.551Z,93567.00
2023-03-10T13:28:11.464Z,93584.00
2023-03-10T13:33:52.329Z,93599.00
2023-03-10T13:39:28.017Z,93630.00
2023-03-10T13:44:56.546Z,93605.00
2023-03-10T13:50:24.791Z,93610.00
2023-03-10T13:55:52.583Z,93630.00
2023-03-10T14:01:30.893Z,93627.00
2023-03-10T14:07:11.380Z,93625.00
2023-03-10T14:12:50.117Z,93623.00
2023-03-10T14:18:19.656Z,93634.00
2023-03-10T14:23:47.809Z,93622.00
2023-03-10T14:29:18.744Z,93633.00
2023-03-10T14:34:48.348Z,93639.00
2023-03-10T14:40:17.294Z,93632.00
2023-03-10T14:45:47.618Z,93627.00
2023-03-10T14:51:32.673Z,93627.00
2023-03-10T14:57:03.011Z,93617.00
2023-03-10T15:02:31.053Z,93625.00
2023-03-10T15:07:59.199Z,93667.00
2023-03-10T15:13:27.341Z,93654.00
2023-03-10T15:18:55.573Z,93683.00
2023-03-10T15:24:23.480Z,93665.00
2023-03-10T15:29:51.683Z,93673.00
2023-03-10T15:35:21.715Z,93676.00
2023-03-10T15:40:49.870Z,93674.00
2023-03-10T15:46:18.176Z,93689.00
2023-03-10T15:51:46.346Z,93686.00
2023-03-10T15:57:14.717Z,93708.00
2023-03-10T16:02:43.938Z,93703.00
2023-03-10T16:08:11.681Z,93709.00
2023-03-10T16:13:39.467Z,93703.00
2023-03-10T16:19:07.698Z,93698.00
2023-03-10T16:24:36.119Z,93719.00
2023-03-10T16:30:05.052Z,93715.00
2023-03-10T16:35:33.668Z,93737.00
2023-03-10T16:41:02.486Z,93723.00
2023-03-10T16:46:31.607Z,93718.00
2023-03-10T16:51:59.952Z,93749.00
2023-03-10T16:57:28.233Z,93731.00
2023-03-10T17:02:57.128Z,93764.00
2023-03-10T17:08:25.237Z,93748.00
2023-03-10T17:13:56.540Z,93761.00
2023-03-10T17:19:29.908Z,93750.00
2023-03-10T17:24:59.213Z,93726.00
2023-03-10T17:30:27.405Z,93794.00
2023-03-10T17:35:55.339Z,93825.00
2023-03-10T17:41:24.137Z,93802.00
2023-03-10T17:46:56.400Z,93843.00
2023-03-10T17:52:24.821Z,93821.00
2023-03-10T17:57:52.772Z,93849.00
2023-03-10T18:03:22.287Z,93827.00
2023-03-10T18:08:52.102Z,93860.00
2023-03-10T18:14:20.295Z,93834.00
2023-03-10T18:19:52.291Z,93858.00
2023-03-10T18:25:21.627Z,93841.00
2023-03-10T18:30:52.134Z,93815.00
2023-03-10T18:36:21.504Z,93829.00
2023-03-10T18:41:49.436Z,93817.00
2023-03-10T18:47:17.453Z,93842.00
2023-03-10T18:52:46.856Z,93831.00
2023-03-10T18:58:15.002Z,93828.00
2023-03-10T19:03:43.446Z,93816.00
2023-03-10T19:09:12.001Z,93863.00
2023-03-10T19:14:40.658Z,93845.00
2023-03-10T19:20:13.102Z,93832.00
2023-03-10T19:25:41.645Z,93852.00
2023-03-10T19:31:15.751Z,93855.00
2023-03-10T19:36:44.175Z,93872.00
2023-03-10T19:42:13.004Z,93843.00
2023-03-10T19:47:41.749Z,93843.00
2023-03-10T19:53:09.495Z,93849.00
2023-03-10T19:58:38.658Z,93856.00
2023-03-10T20:04:06.719Z,93846.00
2023-03-10T20:09:34.592Z,93834.00
2023-03-10T20:15:05.239Z,93823.00
2023-03-10T20:20:34.850Z,93850.00
2023-03-10T20:26:07.841Z,93819.00
2023-03-10T20:31:35.963Z,93837.00
2023-03-10T20:37:04.166Z,93842.00
2023-03-10T20:42:33.762Z,93851.00
2023-03-10T20:48:01.586Z,93850.00
2023-03-10T20:53:37.219Z,93853.00
2023-03-10T20:59:05.096Z,93864.00
2023-03-10T21:04:33.757Z,93872.00
2023-03-10T21:10:01.901Z,93851.00
2023-03-10T21:15:30.201Z,93911.00
2023-03-10T21:20:58.423Z,93916.00
2023-03-10T21:26:26.849Z,93922.00
2023-03-10T21:31:55.079Z,93933.00
2023-03-10T21:37:23.840Z,93963.00
2023-03-10T21:42:51.876Z,93989.00
2023-03-10T21:48:20.088Z,93977.00
2023-03-10T21:53:48.341Z,94046.00
2023-03-10T21:59:16.714Z,94032.00
2023-03-10T22:04:44.725Z,94042.00
2023-03-10T22:10:13.575Z,94043.00
2023-03-10T22:15:41.470Z,94063.00
2023-03-10T22:21:09.846Z,94060.00
2023-03-10T22:26:37.638Z,94061.00
2023-03-10T22:32:06.760Z,94112.00
2023-03-10T22:37:34.595Z,94127.00
2023-03-10T22:43:02.452Z,94141.00
2023-03-10T22:48:30.773Z,94132.00
2023-03-10T22:53:58.513Z,94128.00
2023-03-10T22:59:26.781Z,94135.00
2023-03-10T23:04:55.494Z,94148.00
2023-03-10T23:10:32.107Z,94158.00
2023-03-10T23:16:00.756Z,94182.00
2023-03-10T23:21:29.232Z,94182.00
2023-03-10T23:26:57.450Z,94236.00
2023-03-10T23:32:25.597Z,94251.00
2023-03-10T23:37:54.120Z,94272.00
2023-03-10T23:43:22.628Z,94257.00
2023-03-10T23:48:50.917Z,94258.00
2023-03-10T23:54:22.432Z,94273.00
2023-03-10T23:59:50.653Z,94279.00
